Sycamore Park, Indiana
Current Conditions -  °F | °C
As of 6:37 PM on Monday 22 Dec 2014 (Local Time) from KHUF Reporting Station
Light Rain Light Rain  
Wind Chill: 39°   Ceiling: 2800
Heat Index: 45°   Visibility: 5mi
Dew Point: 42°   Wind: 12mph
Humidity: 90%   Direction: 120°ESE
Pressure: 29.68"   Gusts: NA
Location:  39.5107°N, 87.4772°W
Report Text: KHUF 222337Z 12010KT 5SM -RA BR SCT024 BKN028 OVC038 07/06 A2968 RMK AO2 P0006 T00720056
Loading
Personal Weather Stations






























Interactive Weather Map New forecast layout! Learn more

10-Day Weather Forecast

Advertisements
Track Severe Weather on mobile